Time;durP1;ratioP1;P1;durP2;ratioP2;P2;SDS_P1;SDS_P2;PMS_P1;PMS_P2;Temp;Humidity;BMP_temperature;BMP_pressure;BME280_temperature;BME280_humidity;BME280_pressure;Samples;Min_cycle;Max_cycle;Signal;HPM_P1;HPM_P2
2021/12/16 00:01:41;;;;;;;;;;;2.70;99.90;;;;;;5017783;28;19916;-76
2021/12/16 00:03:52;;;;;;;;;;;2.80;99.90;;;;;;5017671;28;19920;-76
2021/12/16 00:06:52;;;;;;;;;;;3.00;99.90;;;;;;5017631;28;19996;-76
2021/12/16 00:09:06;;;;;;;;;;;3.30;99.90;;;;;;5016916;28;19913;-77
2021/12/16 00:35:37;;;;;;;;;;;3.00;99.90;;;;;;5017381;28;20370;-76
2021/12/16 00:38:03;;;;;;;;;;;2.90;99.90;;;;;;5013488;28;20020;-76
2021/12/16 00:40:29;;;;;;;;;;;2.80;99.90;;;;;;5017763;28;19909;-76
2021/12/16 00:42:59;;;;;;;;;;;2.80;99.90;;;;;;5036889;28;20051;-76
2021/12/16 00:45:42;;;;;;;;;;;2.70;99.90;;;;;;5019352;28;19909;-76
2021/12/16 00:55:54;;;;;;;;;;;3.10;99.90;;;;;;5040450;28;19915;-75
2021/12/16 00:58:24;;;;;;;;;;;3.00;99.90;;;;;;5022861;28;19972;-76
2021/12/16 01:01:01;;;;;;;;;;;2.80;99.90;;;;;;5040529;28;19910;-76
2021/12/16 01:03:45;;;;;;;;;;;2.60;99.90;;;;;;5040648;28;19913;-76
2021/12/16 01:06:49;;;;;;;;;;;2.50;99.90;;;;;;5023170;28;19909;-76
2021/12/16 01:34:06;;;;;;;;;;;1.90;99.90;;;;;;5020280;28;20312;-76
2021/12/16 01:48:06;;;;;;;;;;;1.80;99.90;;;;;;5039993;28;19959;-76
2021/12/16 01:50:36;;;;;;;;;;;1.80;99.90;;;;;;5021871;28;19909;-77
2021/12/16 01:54:12;;;;;;;;;;;1.80;99.90;;;;;;5039772;28;19959;-76
2021/12/16 01:56:02;;;;;;;;;;;1.80;99.90;;;;;;5025202;28;20396;-76
2021/12/16 01:58:30;;;;;;;;;;;1.80;99.90;;;;;;5039087;28;19916;-76
2021/12/16 02:01:17;;;;;;;;;;;1.80;99.90;;;;;;5038067;28;19909;-76
2021/12/16 02:03:48;;;;;;;;;;;1.80;99.90;;;;;;5039458;28;19920;-76
2021/12/16 02:08:44;;;;;;;;;;;2.00;99.90;;;;;;5010731;28;19918;-77
2021/12/16 02:27:37;;;;;;;;;;;2.50;99.90;;;;;;5019136;28;19985;-77
2021/12/16 02:37:50;;;;;;;;;;;2.00;99.90;;;;;;5019298;28;20258;-76
2021/12/16 02:40:17;;;;;;;;;;;2.00;99.90;;;;;;5001206;28;19932;-77
2021/12/16 02:43:00;;;;;;;;;;;1.90;99.90;;;;;;5014074;28;19921;-76
2021/12/16 02:48:31;;;;;;;;;;;2.10;99.90;;;;;;4978616;28;19956;-76
2021/12/16 02:51:03;;;;;;;;;;;2.00;99.90;;;;;;5001092;28;19913;-76
2021/12/16 02:53:29;;;;;;;;;;;2.00;99.90;;;;;;5019021;28;19910;-76
2021/12/16 02:55:54;;;;;;;;;;;2.00;99.90;;;;;;5018581;28;20004;-76
2021/12/16 02:58:20;;;;;;;;;;;2.00;99.90;;;;;;5018823;28;19909;-76
2021/12/16 03:00:50;;;;;;;;;;;2.00;99.90;;;;;;5018687;28;19945;-76
2021/12/16 03:03:16;;;;;;;;;;;1.90;99.90;;;;;;5018581;28;19915;-76
2021/12/16 03:05:42;;;;;;;;;;;1.90;99.90;;;;;;5000902;28;19917;-76
2021/12/16 03:08:07;;;;;;;;;;;1.80;99.90;;;;;;5017310;28;19936;-76
2021/12/16 03:13:32;;;;;;;;;;;1.70;99.90;;;;;;5017604;28;19932;-76
2021/12/16 03:21:05;;;;;;;;;;;1.60;99.90;;;;;;5018665;28;19932;-76
2021/12/16 03:36:32;;;;;;;;;;;1.60;99.90;;;;;;5018276;28;19910;-76
2021/12/16 03:38:59;;;;;;;;;;;1.60;99.90;;;;;;5017859;28;19917;-76
2021/12/16 03:41:25;;;;;;;;;;;1.60;99.90;;;;;;5000191;28;20424;-76
2021/12/16 03:43:51;;;;;;;;;;;1.50;99.90;;;;;;5018096;28;19910;-77
2021/12/16 03:46:25;;;;;;;;;;;1.50;99.90;;;;;;4980047;28;19910;-76
2021/12/16 03:49:09;;;;;;;;;;;1.50;99.90;;;;;;4992432;28;19955;-77
2021/12/16 03:51:38;;;;;;;;;;;1.50;99.90;;;;;;5018032;28;19917;-76
2021/12/16 03:54:24;;;;;;;;;;;1.50;99.90;;;;;;5017741;28;19909;-77
2021/12/16 03:56:50;;;;;;;;;;;1.40;99.90;;;;;;5017326;28;20008;-77
2021/12/16 03:59:17;;;;;;;;;;;1.40;99.90;;;;;;5017710;28;20339;-76
2021/12/16 04:01:43;;;;;;;;;;;1.40;99.90;;;;;;5017899;28;19913;-77
2021/12/16 04:04:09;;;;;;;;;;;1.40;99.90;;;;;;5017709;28;20377;-77
2021/12/16 04:06:36;;;;;;;;;;;1.40;99.90;;;;;;5017953;28;20097;-76
2021/12/16 04:09:03;;;;;;;;;;;1.30;99.90;;;;;;5017394;28;20289;-77
2021/12/16 04:11:38;;;;;;;;;;;1.30;99.90;;;;;;5000313;28;19944;-77
2021/12/16 04:14:04;;;;;;;;;;;1.30;99.90;;;;;;5017683;28;19946;-77
2021/12/16 04:16:32;;;;;;;;;;;1.20;99.90;;;;;;5010101;28;20017;-76
2021/12/16 04:18:59;;;;;;;;;;;1.20;99.90;;;;;;5017477;28;19945;-76
2021/12/16 04:21:26;;;;;;;;;;;1.20;99.90;;;;;;5000061;28;19910;-76
2021/12/16 04:23:54;;;;;;;;;;;1.30;99.90;;;;;;5021257;28;20282;-76
2021/12/16 04:26:20;;;;;;;;;;;1.30;99.90;;;;;;5021437;28;19921;-76
2021/12/16 04:28:45;;;;;;;;;;;1.40;99.90;;;;;;5021377;28;19917;-76
2021/12/16 04:31:11;;;;;;;;;;;1.40;99.90;;;;;;5003843;28;19913;-76
2021/12/16 04:33:39;;;;;;;;;;;1.40;99.90;;;;;;5021524;28;19913;-76
2021/12/16 04:36:08;;;;;;;;;;;1.40;99.90;;;;;;5021358;28;19914;-77
2021/12/16 04:38:35;;;;;;;;;;;1.30;99.90;;;;;;5003776;28;19913;-76
2021/12/16 04:41:01;;;;;;;;;;;1.30;99.90;;;;;;5021107;28;19910;-76
2021/12/16 04:43:38;;;;;;;;;;;1.30;99.90;;;;;;5003438;28;19964;-76
2021/12/16 04:46:05;;;;;;;;;;;1.30;99.90;;;;;;5019843;28;20052;-77
2021/12/16 04:48:30;;;;;;;;;;;1.30;99.90;;;;;;5003573;28;19949;-76
2021/12/16 04:50:56;;;;;;;;;;;1.30;99.90;;;;;;5020294;28;19910;-76
2021/12/16 04:53:22;;;;;;;;;;;1.30;99.90;;;;;;5003604;28;19914;-76
2021/12/16 04:55:48;;;;;;;;;;;1.30;99.90;;;;;;5019478;28;20002;-77
2021/12/16 04:58:14;;;;;;;;;;;1.30;99.90;;;;;;5021256;28;20000;-77
2021/12/16 05:00:40;;;;;;;;;;;1.30;99.90;;;;;;5017501;28;19964;-77
2021/12/16 05:03:05;;;;;;;;;;;1.20;99.90;;;;;;5011261;28;19917;-77
2021/12/16 05:05:31;;;;;;;;;;;1.20;99.90;;;;;;5003073;28;20388;-76
2021/12/16 05:07:56;;;;;;;;;;;1.20;99.90;;;;;;5020952;28;19998;-77
2021/12/16 05:10:22;;;;;;;;;;;1.20;99.90;;;;;;5020470;28;19913;-77
2021/12/16 05:12:54;;;;;;;;;;;1.30;99.90;;;;;;5020707;28;19910;-76
2021/12/16 05:15:21;;;;;;;;;;;1.30;99.90;;;;;;5020889;28;19957;-76
2021/12/16 05:17:51;;;;;;;;;;;1.30;99.90;;;;;;5020788;28;19940;-77
2021/12/16 05:20:20;;;;;;;;;;;1.20;99.90;;;;;;5020475;28;19916;-77
2021/12/16 05:27:56;;;;;;;;;;;1.30;99.90;;;;;;5020164;28;20408;-77
2021/12/16 05:30:21;;;;;;;;;;;1.20;99.90;;;;;;5020383;28;20008;-77
2021/12/16 05:32:47;;;;;;;;;;;1.30;99.90;;;;;;4999234;28;19909;-76
2021/12/16 05:35:15;;;;;;;;;;;1.30;99.90;;;;;;5018218;28;19909;-76
2021/12/16 05:37:42;;;;;;;;;;;1.30;99.90;;;;;;5020320;28;19916;-77
2021/12/16 05:40:09;;;;;;;;;;;1.30;99.90;;;;;;5020034;28;19920;-76
2021/12/16 05:42:34;;;;;;;;;;;1.10;99.90;;;;;;5019894;28;19921;-76
2021/12/16 05:45:00;;;;;;;;;;;1.10;99.90;;;;;;5020222;28;19975;-76
2021/12/16 05:47:25;;;;;;;;;;;1.00;99.90;;;;;;5020134;28;19947;-77
2021/12/16 05:49:51;;;;;;;;;;;1.00;99.90;;;;;;5020237;28;19913;-76
2021/12/16 05:52:17;;;;;;;;;;;0.90;99.90;;;;;;5002192;28;19955;-76
2021/12/16 05:54:42;;;;;;;;;;;0.90;99.90;;;;;;5002314;28;19960;-76
2021/12/16 05:57:08;;;;;;;;;;;1.00;99.90;;;;;;5019917;28;20726;-76
2021/12/16 05:59:33;;;;;;;;;;;1.10;99.90;;;;;;5019852;28;19923;-76
2021/12/16 06:01:59;;;;;;;;;;;1.20;99.90;;;;;;5002037;28;20293;-76
2021/12/16 06:04:25;;;;;;;;;;;1.20;99.90;;;;;;5011631;28;19909;-77
2021/12/16 06:06:50;;;;;;;;;;;1.20;99.90;;;;;;5002085;28;19909;-76
2021/12/16 06:09:16;;;;;;;;;;;1.20;99.90;;;;;;5019528;28;19909;-77
2021/12/16 06:11:43;;;;;;;;;;;1.20;99.90;;;;;;5001946;28;19977;-77
2021/12/16 06:14:17;;;;;;;;;;;1.20;99.90;;;;;;5018209;28;19909;-76
2021/12/16 06:27:46;;;;;;;;;;;1.10;99.90;;;;;;5018911;28;20400;-77
2021/12/16 06:30:13;;;;;;;;;;;1.10;99.90;;;;;;5019030;28;19910;-77
2021/12/16 06:32:39;;;;;;;;;;;1.10;99.90;;;;;;5019259;28;19910;-77
2021/12/16 06:35:05;;;;;;;;;;;1.10;99.90;;;;;;5018907;28;19953;-77
2021/12/16 06:37:31;;;;;;;;;;;1.20;99.90;;;;;;5001583;28;20340;-77
2021/12/16 06:39:57;;;;;;;;;;;1.20;99.90;;;;;;5018764;28;19913;-77
2021/12/16 06:42:24;;;;;;;;;;;1.30;99.90;;;;;;5018803;28;20420;-77
2021/12/16 06:44:54;;;;;;;;;;;1.30;99.90;;;;;;5018518;28;19913;-77
2021/12/16 06:47:26;;;;;;;;;;;1.30;99.90;;;;;;5018880;28;19910;-77
2021/12/16 06:49:54;;;;;;;;;;;1.30;99.90;;;;;;5001243;28;20016;-77
2021/12/16 06:52:24;;;;;;;;;;;1.20;99.90;;;;;;5017164;28;19910;-77
2021/12/16 06:55:10;;;;;;;;;;;1.20;99.90;;;;;;5000642;28;19916;-77
2021/12/16 06:57:51;;;;;;;;;;;1.20;99.90;;;;;;5017070;28;19992;-77
2021/12/16 07:00:27;;;;;;;;;;;1.10;99.90;;;;;;5016267;28;19920;-77
2021/12/16 07:03:01;;;;;;;;;;;1.10;99.90;;;;;;5015362;28;19918;-77
2021/12/16 07:05:30;;;;;;;;;;;1.00;99.90;;;;;;5014643;28;20301;-77
2021/12/16 07:07:56;;;;;;;;;;;1.00;99.90;;;;;;5015739;28;20027;-77
2021/12/16 07:10:22;;;;;;;;;;;1.00;99.90;;;;;;5000100;28;19913;-77
2021/12/16 07:12:49;;;;;;;;;;;1.00;99.90;;;;;;5000211;28;19981;-77
2021/12/16 07:15:18;;;;;;;;;;;0.90;99.90;;;;;;5017875;28;19929;-78
2021/12/16 07:17:43;;;;;;;;;;;0.90;99.90;;;;;;5012719;28;19916;-77
2021/12/16 07:20:10;;;;;;;;;;;0.80;99.90;;;;;;4998763;28;19917;-77
2021/12/16 07:22:36;;;;;;;;;;;0.80;99.90;;;;;;5017531;28;19952;-77
2021/12/16 07:25:05;;;;;;;;;;;0.80;99.90;;;;;;5036993;28;21235;-77
2021/12/16 07:27:33;;;;;;;;;;;0.80;99.90;;;;;;5037854;28;19921;-78
2021/12/16 07:29:58;;;;;;;;;;;0.80;99.90;;;;;;4995004;28;19914;-77
2021/12/16 07:32:24;;;;;;;;;;;0.80;99.90;;;;;;5009710;28;20003;-77
2021/12/16 07:34:50;;;;;;;;;;;0.80;99.90;;;;;;5017245;28;19910;-78
2021/12/16 07:37:15;;;;;;;;;;;0.80;99.90;;;;;;4999821;28;20072;-77
2021/12/16 07:39:43;;;;;;;;;;;0.90;99.90;;;;;;5017701;28;20016;-78
2021/12/16 07:42:11;;;;;;;;;;;0.90;99.90;;;;;;5000557;28;19917;-78
2021/12/16 07:44:37;;;;;;;;;;;0.90;99.90;;;;;;5017902;28;19909;-78
2021/12/16 07:47:04;;;;;;;;;;;0.90;99.90;;;;;;5000474;28;19909;-78
2021/12/16 07:49:31;;;;;;;;;;;0.90;99.90;;;;;;5017789;28;19917;-78
2021/12/16 07:51:58;;;;;;;;;;;0.90;99.90;;;;;;5018022;28;20370;-78
2021/12/16 07:54:24;;;;;;;;;;;1.00;99.90;;;;;;4999901;28;19910;-78
2021/12/16 07:56:52;;;;;;;;;;;0.90;99.90;;;;;;5016905;28;19955;-78
2021/12/16 07:59:18;;;;;;;;;;;1.00;99.90;;;;;;5017678;28;20289;-78
2021/12/16 08:01:44;;;;;;;;;;;1.10;99.90;;;;;;5017777;28;19917;-78
2021/12/16 08:04:18;;;;;;;;;;;1.10;99.90;;;;;;5017694;28;19910;-78
2021/12/16 08:06:45;;;;;;;;;;;1.20;99.90;;;;;;4999471;28;19913;-78
2021/12/16 08:09:10;;;;;;;;;;;1.20;99.90;;;;;;5017006;28;19910;-78
2021/12/16 08:11:37;;;;;;;;;;;1.30;99.90;;;;;;5017061;28;19952;-79
2021/12/16 08:14:03;;;;;;;;;;;1.40;99.90;;;;;;5016603;28;19914;-78
2021/12/16 08:16:29;;;;;;;;;;;1.40;99.90;;;;;;5017562;28;19910;-79
2021/12/16 08:18:55;;;;;;;;;;;1.50;99.90;;;;;;5024988;28;19909;-78
2021/12/16 08:21:21;;;;;;;;;;;1.50;99.90;;;;;;5037439;28;19916;-78
2021/12/16 08:23:46;;;;;;;;;;;1.60;99.90;;;;;;5018336;28;20009;-79
2021/12/16 08:26:15;;;;;;;;;;;1.60;99.90;;;;;;5020021;28;19921;-78
2021/12/16 08:28:42;;;;;;;;;;;1.70;99.90;;;;;;5002955;28;19945;-78
2021/12/16 08:31:07;;;;;;;;;;;1.70;99.90;;;;;;5016906;28;19913;-79
2021/12/16 08:33:33;;;;;;;;;;;1.80;99.90;;;;;;5017057;28;19916;-79
2021/12/16 08:35:59;;;;;;;;;;;1.90;99.90;;;;;;5003106;28;19910;-79
2021/12/16 08:38:25;;;;;;;;;;;1.90;99.90;;;;;;4998060;28;19957;-79
2021/12/16 08:40:52;;;;;;;;;;;2.00;99.90;;;;;;5000709;28;19910;-78
2021/12/16 08:43:19;;;;;;;;;;;2.10;99.90;;;;;;5017137;28;19925;-79
2021/12/16 08:45:45;;;;;;;;;;;2.30;99.90;;;;;;5017161;28;19917;-78
2021/12/16 08:48:11;;;;;;;;;;;2.40;99.90;;;;;;5017462;28;20381;-78
2021/12/16 08:50:39;;;;;;;;;;;2.50;99.90;;;;;;5017565;28;19910;-78
2021/12/16 08:53:05;;;;;;;;;;;2.60;99.90;;;;;;5006702;28;19914;-78
2021/12/16 08:55:32;;;;;;;;;;;2.80;99.90;;;;;;5011521;28;19913;-78
2021/12/16 08:57:58;;;;;;;;;;;2.90;99.90;;;;;;5017616;28;19909;-78
2021/12/16 09:00:26;;;;;;;;;;;3.00;99.90;;;;;;5017129;28;20357;-78
2021/12/16 09:02:51;;;;;;;;;;;3.10;99.90;;;;;;4999668;28;19931;-78
2021/12/16 09:05:17;;;;;;;;;;;3.20;99.90;;;;;;5016999;28;19917;-78
2021/12/16 09:07:46;;;;;;;;;;;3.30;99.90;;;;;;4999606;28;19910;-78
2021/12/16 09:10:14;;;;;;;;;;;3.40;99.90;;;;;;5020578;28;19960;-78
2021/12/16 09:15:24;;;;;;;;;;;3.60;99.90;;;;;;5020870;28;19917;-78
2021/12/16 09:17:51;;;;;;;;;;;3.70;99.90;;;;;;5020688;28;19914;-76
2021/12/16 09:20:18;;;;;;;;;;;3.80;99.90;;;;;;5012927;28;20309;-76
2021/12/16 09:22:43;;;;;;;;;;;3.90;99.90;;;;;;5013210;28;19913;-76
2021/12/16 09:25:09;;;;;;;;;;;4.00;99.90;;;;;;5019563;28;19916;-76
2021/12/16 09:27:36;;;;;;;;;;;4.10;99.90;;;;;;5017795;28;19933;-76
2021/12/16 09:30:03;;;;;;;;;;;4.10;99.90;;;;;;5002370;28;19910;-76
2021/12/16 09:32:31;;;;;;;;;;;4.20;99.90;;;;;;5013107;28;20289;-76
2021/12/16 09:34:57;;;;;;;;;;;4.20;99.90;;;;;;5004721;28;20012;-76
2021/12/16 09:37:22;;;;;;;;;;;4.40;99.90;;;;;;5026630;28;20346;-76
2021/12/16 09:39:48;;;;;;;;;;;4.50;99.90;;;;;;5019710;28;20330;-76
2021/12/16 09:42:13;;;;;;;;;;;4.50;99.90;;;;;;5020004;28;19921;-77
2021/12/16 09:44:39;;;;;;;;;;;4.60;99.90;;;;;;5019965;28;19910;-76
2021/12/16 09:47:07;;;;;;;;;;;4.80;99.90;;;;;;5020192;28;19910;-77
2021/12/16 09:49:32;;;;;;;;;;;4.80;99.90;;;;;;5020195;28;20353;-77
2021/12/16 09:51:59;;;;;;;;;;;4.90;99.90;;;;;;5010684;28;19909;-77
2021/12/16 09:54:26;;;;;;;;;;;4.90;99.90;;;;;;5017196;28;19925;-76
2021/12/16 09:56:52;;;;;;;;;;;4.90;99.90;;;;;;5019146;28;19913;-77
2021/12/16 09:59:19;;;;;;;;;;;5.10;99.90;;;;;;5019332;28;19909;-76
2021/12/16 10:01:47;;;;;;;;;;;5.20;99.90;;;;;;5001724;28;19909;-76
2021/12/16 10:04:13;;;;;;;;;;;5.30;99.90;;;;;;5003677;28;19910;-76
2021/12/16 10:06:40;;;;;;;;;;;5.50;99.90;;;;;;5001505;28;19913;-76
2021/12/16 10:09:06;;;;;;;;;;;5.50;99.90;;;;;;5001313;28;19956;-76
2021/12/16 10:11:34;;;;;;;;;;;5.60;99.90;;;;;;5019414;28;20400;-76
2021/12/16 10:14:15;;;;;;;;;;;5.70;99.90;;;;;;5019385;28;19916;-76
2021/12/16 10:19:27;;;;;;;;;;;5.70;99.90;;;;;;5019113;28;19917;-76
2021/12/16 10:21:54;;;;;;;;;;;5.80;99.90;;;;;;5018726;28;19919;-76
2021/12/16 10:24:21;;;;;;;;;;;5.80;99.90;;;;;;5001468;28;20396;-76
2021/12/16 10:27:02;;;;;;;;;;;5.90;99.90;;;;;;5017493;28;19914;-76
2021/12/16 10:29:39;;;;;;;;;;;6.00;99.90;;;;;;5008290;28;19913;-76
2021/12/16 10:32:06;;;;;;;;;;;6.10;99.90;;;;;;5001478;28;20395;-76
2021/12/16 10:34:31;;;;;;;;;;;6.10;99.90;;;;;;5017667;28;19952;-76
2021/12/16 10:36:59;;;;;;;;;;;6.10;99.90;;;;;;5019590;28;19910;-76
2021/12/16 10:39:28;;;;;;;;;;;6.20;99.90;;;;;;5018660;28;19917;-76
2021/12/16 10:42:00;;;;;;;;;;;6.20;99.90;;;;;;5018966;28;19957;-76
2021/12/16 10:44:28;;;;;;;;;;;6.30;99.90;;;;;;5019100;28;19990;-76
2021/12/16 10:47:09;;;;;;;;;;;6.30;99.90;;;;;;5001448;28;20404;-76
2021/12/16 10:49:36;;;;;;;;;;;6.40;99.90;;;;;;5018734;28;19916;-76
2021/12/16 10:52:14;;;;;;;;;;;6.40;99.90;;;;;;5018856;28;19921;-76
2021/12/16 10:54:41;;;;;;;;;;;6.50;99.90;;;;;;5001079;28;20289;-77
2021/12/16 10:57:11;;;;;;;;;;;6.60;99.90;;;;;;5018605;28;19920;-77
2021/12/16 10:59:37;;;;;;;;;;;6.70;99.90;;;;;;5019038;28;19910;-76
2021/12/16 11:02:15;;;;;;;;;;;6.80;99.90;;;;;;5018545;28;20008;-76
2021/12/16 11:04:51;;;;;;;;;;;6.80;99.90;;;;;;5018821;28;19909;-76
2021/12/16 11:07:19;;;;;;;;;;;6.90;99.90;;;;;;5018385;28;19916;-78
2021/12/16 11:09:51;;;;;;;;;;;7.00;99.90;;;;;;5018435;28;20006;-77
2021/12/16 11:12:19;;;;;;;;;;;7.00;99.90;;;;;;5018325;28;19910;-77
2021/12/16 11:14:46;;;;;;;;;;;7.10;99.90;;;;;;5018687;28;19909;-77
2021/12/16 11:17:13;;;;;;;;;;;7.10;99.90;;;;;;5018305;28;19949;-77
2021/12/16 11:19:47;;;;;;;;;;;7.10;99.90;;;;;;5012489;28;19909;-77
2021/12/16 11:22:14;;;;;;;;;;;7.20;99.90;;;;;;5038143;28;19999;-76
2021/12/16 11:24:40;;;;;;;;;;;7.20;99.90;;;;;;5037847;28;20273;-78
2021/12/16 11:27:42;;;;;;;;;;;7.30;99.90;;;;;;5030396;28;19913;-77
2021/12/16 11:30:23;;;;;;;;;;;7.30;99.90;;;;;;4940348;29;19910;-77
2021/12/16 11:32:50;;;;;;;;;;;7.40;99.90;;;;;;4981003;28;20053;-77
2021/12/16 11:35:25;;;;;;;;;;;7.40;99.90;;;;;;5031063;28;19910;-78
2021/12/16 11:37:51;;;;;;;;;;;7.50;99.90;;;;;;5033084;28;19913;-78
2021/12/16 11:40:17;;;;;;;;;;;7.50;99.90;;;;;;5037870;28;19916;-78
2021/12/16 11:42:43;;;;;;;;;;;7.60;99.90;;;;;;5019816;28;19917;-78
2021/12/16 11:45:09;;;;;;;;;;;7.70;99.90;;;;;;5020079;28;19909;-78
2021/12/16 11:47:35;;;;;;;;;;;7.80;99.90;;;;;;5019811;28;20294;-78
2021/12/16 11:50:04;;;;;;;;;;;7.80;99.90;;;;;;5037987;28;20354;-78
2021/12/16 11:52:32;;;;;;;;;;;7.90;99.90;;;;;;5025001;28;20443;-78
2021/12/16 11:54:59;;;;;;;;;;;8.00;99.90;;;;;;5017661;28;19957;-78
2021/12/16 11:57:27;;;;;;;;;;;8.10;99.90;;;;;;5000318;28;20012;-79
2021/12/16 11:59:58;;;;;;;;;;;8.20;99.90;;;;;;5000025;28;19913;-79
2021/12/16 12:02:28;;;;;;;;;;;8.30;99.90;;;;;;5017264;28;19967;-78
2021/12/16 12:05:11;;;;;;;;;;;8.30;99.90;;;;;;5017800;28;19910;-78
2021/12/16 12:07:43;;;;;;;;;;;8.30;99.90;;;;;;5017143;28;19920;-78
2021/12/16 12:10:09;;;;;;;;;;;8.40;99.90;;;;;;5021387;28;20392;-78
2021/12/16 12:12:47;;;;;;;;;;;8.40;99.90;;;;;;5017139;28;19910;-78
2021/12/16 12:15:14;;;;;;;;;;;8.50;99.90;;;;;;5017242;28;19909;-78
2021/12/16 12:18:06;;;;;;;;;;;8.40;99.90;;;;;;4998218;28;20005;-78
2021/12/16 12:20:33;;;;;;;;;;;8.40;99.90;;;;;;4995808;28;19920;-78
2021/12/16 12:23:00;;;;;;;;;;;8.50;99.90;;;;;;5017051;28;19952;-78
2021/12/16 12:25:26;;;;;;;;;;;8.60;99.90;;;;;;5016916;28;20621;-78
2021/12/16 12:27:51;;;;;;;;;;;8.60;99.90;;;;;;5016778;28;20312;-78
2021/12/16 12:30:17;;;;;;;;;;;8.60;99.90;;;;;;4999427;28;19909;-78
2021/12/16 12:32:44;;;;;;;;;;;8.60;99.90;;;;;;5017615;28;19917;-78
2021/12/16 12:35:15;;;;;;;;;;;8.60;99.90;;;;;;5017521;28;19952;-78
2021/12/16 12:37:42;;;;;;;;;;;8.60;99.90;;;;;;5017657;28;19918;-78
2021/12/16 12:40:28;;;;;;;;;;;8.60;99.90;;;;;;5017456;28;19916;-78
2021/12/16 12:42:54;;;;;;;;;;;8.60;99.90;;;;;;4999836;28;19924;-79
2021/12/16 12:45:23;;;;;;;;;;;8.70;99.90;;;;;;5020891;28;19935;-80
2021/12/16 12:47:52;;;;;;;;;;;8.70;99.90;;;;;;5030219;28;19914;-78
2021/12/16 12:50:17;;;;;;;;;;;8.70;99.90;;;;;;5019783;28;19968;-78
2021/12/16 12:52:46;;;;;;;;;;;8.80;99.90;;;;;;5003128;28;19909;-78
2021/12/16 12:55:17;;;;;;;;;;;8.80;99.90;;;;;;5019353;28;20285;-78
2021/12/16 12:57:43;;;;;;;;;;;8.90;99.90;;;;;;5019507;28;19948;-78
2021/12/16 13:00:24;;;;;;;;;;;8.90;99.90;;;;;;5021029;28;20373;-78
2021/12/16 13:02:55;;;;;;;;;;;8.90;99.90;;;;;;5003208;28;20407;-78
2021/12/16 13:05:21;;;;;;;;;;;8.90;99.90;;;;;;5020954;28;19992;-78
2021/12/16 13:07:53;;;;;;;;;;;8.90;99.90;;;;;;5021007;28;19910;-78
2021/12/16 13:10:22;;;;;;;;;;;8.90;99.90;;;;;;5002819;28;19917;-78
2021/12/16 13:13:12;;;;;;;;;;;9.00;99.90;;;;;;5020787;28;20437;-78
2021/12/16 13:26:43;;;;;;;;;;;9.20;99.90;;;;;;5020581;28;20254;-78
2021/12/16 13:29:34;;;;;;;;;;;9.20;99.90;;;;;;5020625;28;19924;-78
2021/12/16 13:34:51;;;;;;;;;;;9.20;99.90;;;;;;5020714;28;19952;-78
2021/12/16 13:37:23;;;;;;;;;;;9.20;99.90;;;;;;5020616;28;20397;-78
2021/12/16 13:39:54;;;;;;;;;;;9.20;99.90;;;;;;5019929;28;20437;-78
2021/12/16 13:42:20;;;;;;;;;;;9.20;99.90;;;;;;5002494;28;19934;-78
2021/12/16 13:44:51;;;;;;;;;;;9.10;99.90;;;;;;5020039;28;19981;-78
2021/12/16 13:47:40;;;;;;;;;;;9.10;99.90;;;;;;5020574;28;19948;-78
2021/12/16 14:07:12;;;;;;;;;;;8.90;99.90;;;;;;5019767;28;19917;-78
2021/12/16 14:09:51;;;;;;;;;;;8.80;99.90;;;;;;5019755;28;19980;-79
2021/12/16 14:18:14;;;;;;;;;;;8.70;99.90;;;;;;5019365;28;19960;-78
2021/12/16 14:23:41;;;;;;;;;;;8.70;99.90;;;;;;5019077;28;19960;-78
2021/12/16 14:26:19;;;;;;;;;;;8.70;99.90;;;;;;5019475;28;19963;-78
2021/12/16 14:42:20;;;;;;;;;;;8.50;99.90;;;;;;5003526;28;19924;-78
2021/12/16 14:50:12;;;;;;;;;;;8.40;99.90;;;;;;5017459;28;19910;-78
2021/12/16 14:52:37;;;;;;;;;;;8.40;99.90;;;;;;5001744;28;19909;-78
2021/12/16 14:55:08;;;;;;;;;;;8.40;99.90;;;;;;5018710;28;20258;-78
2021/12/16 14:57:36;;;;;;;;;;;8.40;99.90;;;;;;5038292;28;19909;-78
2021/12/16 15:00:20;;;;;;;;;;;8.30;99.90;;;;;;5038523;28;19913;-78
2021/12/16 15:02:48;;;;;;;;;;;8.30;99.90;;;;;;5038432;28;20385;-78
2021/12/16 15:05:24;;;;;;;;;;;8.30;99.90;;;;;;5038628;28;20313;-78
2021/12/16 15:07:50;;;;;;;;;;;8.30;99.90;;;;;;5038197;28;19969;-78
2021/12/16 15:10:16;;;;;;;;;;;8.20;99.90;;;;;;5038172;28;20344;-78
2021/12/16 15:12:53;;;;;;;;;;;8.20;99.90;;;;;;5038306;28;19909;-78
2021/12/16 15:44:32;;;;;;;;;;;7.90;99.90;;;;;;5018206;28;19985;-78
2021/12/16 15:46:57;;;;;;;;;;;7.90;99.90;;;;;;5018147;28;19913;-78
2021/12/16 15:49:23;;;;;;;;;;;7.90;99.90;;;;;;5018081;28;19909;-78
2021/12/16 15:51:50;;;;;;;;;;;8.00;99.90;;;;;;5018079;28;19916;-78
2021/12/16 15:54:18;;;;;;;;;;;8.00;99.90;;;;;;5017633;28;19952;-78
2021/12/16 15:56:46;;;;;;;;;;;7.90;99.90;;;;;;5017171;28;19952;-78
2021/12/16 15:59:13;;;;;;;;;;;7.80;99.90;;;;;;5000438;28;19947;-78
2021/12/16 16:01:41;;;;;;;;;;;7.80;99.90;;;;;;5018093;28;20267;-78
2021/12/16 16:04:18;;;;;;;;;;;7.70;99.90;;;;;;5000242;28;20370;-78
2021/12/16 16:06:45;;;;;;;;;;;7.60;99.90;;;;;;5018034;28;19967;-78
2021/12/16 16:09:12;;;;;;;;;;;7.60;99.90;;;;;;5017463;28;19910;-78
2021/12/16 16:11:39;;;;;;;;;;;7.40;99.90;;;;;;5017875;28;19959;-78
2021/12/16 16:14:05;;;;;;;;;;;7.40;99.90;;;;;;5017851;28;19913;-78
2021/12/16 16:16:40;;;;;;;;;;;7.30;99.90;;;;;;5017691;28;20285;-78
2021/12/16 16:19:09;;;;;;;;;;;7.20;99.90;;;;;;5002426;28;19910;-78
2021/12/16 16:21:36;;;;;;;;;;;7.10;99.90;;;;;;5020555;28;19909;-78
2021/12/16 16:24:04;;;;;;;;;;;7.10;99.90;;;;;;5021908;28;20300;-78
2021/12/16 16:26:31;;;;;;;;;;;7.00;99.90;;;;;;5003812;28;19967;-78
2021/12/16 16:28:59;;;;;;;;;;;7.00;99.90;;;;;;5021945;28;19918;-78
2021/12/16 16:31:26;;;;;;;;;;;6.90;99.90;;;;;;5021949;28;19988;-78
2021/12/16 16:33:52;;;;;;;;;;;6.90;99.90;;;;;;5004260;28;19909;-78
2021/12/16 16:36:19;;;;;;;;;;;6.90;99.90;;;;;;5021728;28;19917;-77
2021/12/16 16:39:17;;;;;;;;;;;6.90;99.90;;;;;;5021439;28;19920;-78
2021/12/16 16:41:44;;;;;;;;;;;7.00;99.90;;;;;;4977720;28;20016;-78
2021/12/16 16:44:13;;;;;;;;;;;7.00;99.90;;;;;;5003656;28;19968;-78
2021/12/16 16:47:10;;;;;;;;;;;7.00;99.90;;;;;;5003875;28;19916;-78
2021/12/16 16:49:47;;;;;;;;;;;7.00;99.90;;;;;;4983162;28;20427;-78
2021/12/16 16:52:14;;;;;;;;;;;7.00;99.90;;;;;;5021253;28;19910;-78
2021/12/16 16:54:42;;;;;;;;;;;6.90;99.90;;;;;;5021015;28;19909;-78
2021/12/16 16:57:10;;;;;;;;;;;6.80;99.90;;;;;;5020892;28;20007;-78
2021/12/16 16:59:45;;;;;;;;;;;6.80;99.90;;;;;;5021001;28;20361;-78
2021/12/16 17:02:25;;;;;;;;;;;6.90;99.90;;;;;;5020778;28;19920;-78
2021/12/16 17:04:53;;;;;;;;;;;6.80;99.90;;;;;;5020959;28;19910;-78
2021/12/16 17:07:19;;;;;;;;;;;6.80;99.90;;;;;;5003199;28;20293;-78
2021/12/16 17:09:44;;;;;;;;;;;6.70;99.90;;;;;;5020576;28;19910;-78
2021/12/16 17:12:12;;;;;;;;;;;6.60;99.90;;;;;;5020486;28;19909;-78
2021/12/16 17:14:41;;;;;;;;;;;6.50;99.90;;;;;;5020030;28;19914;-78
2021/12/16 17:17:13;;;;;;;;;;;6.40;99.90;;;;;;5020689;28;19910;-78
2021/12/16 17:19:43;;;;;;;;;;;6.40;99.90;;;;;;5002974;28;19910;-78
2021/12/16 17:22:14;;;;;;;;;;;6.40;99.90;;;;;;5020101;28;19921;-79
2021/12/16 17:24:42;;;;;;;;;;;6.40;99.90;;;;;;5020262;28;19909;-79
2021/12/16 17:27:09;;;;;;;;;;;6.30;99.90;;;;;;5002479;28;20389;-79
2021/12/16 17:29:40;;;;;;;;;;;6.40;99.90;;;;;;5020384;28;19916;-79
2021/12/16 17:32:13;;;;;;;;;;;6.40;99.90;;;;;;5020452;28;19910;-79
2021/12/16 17:35:09;;;;;;;;;;;6.30;99.90;;;;;;5002314;28;20015;-79
2021/12/16 17:37:38;;;;;;;;;;;6.20;99.90;;;;;;4975153;28;20393;-79
2021/12/16 17:40:09;;;;;;;;;;;6.20;99.90;;;;;;5007203;28;19965;-79
2021/12/16 17:42:43;;;;;;;;;;;6.00;99.90;;;;;;5001592;28;19921;-81
2021/12/16 17:45:32;;;;;;;;;;;5.90;99.90;;;;;;5002259;28;20276;-82
2021/12/16 17:48:01;;;;;;;;;;;5.90;99.90;;;;;;4994051;28;19914;-82
2021/12/16 17:50:36;;;;;;;;;;;5.90;99.90;;;;;;5001408;28;20321;-82
2021/12/16 17:53:01;;;;;;;;;;;5.70;99.90;;;;;;5019642;28;19910;-82
2021/12/16 17:55:29;;;;;;;;;;;5.60;99.90;;;;;;5033004;28;20364;-82
2021/12/16 17:57:58;;;;;;;;;;;5.50;99.90;;;;;;5034659;28;19916;-81
2021/12/16 18:00:33;;;;;;;;;;;5.60;99.90;;;;;;5013505;28;19913;-82
2021/12/16 18:03:00;;;;;;;;;;;5.60;99.90;;;;;;5011531;28;19914;-83
2021/12/16 18:05:27;;;;;;;;;;;5.60;99.90;;;;;;5006573;28;20382;-81
2021/12/16 18:07:52;;;;;;;;;;;5.70;99.90;;;;;;4993339;28;19909;-80
2021/12/16 18:10:20;;;;;;;;;;;5.80;99.90;;;;;;5019407;28;19917;-81
2021/12/16 18:12:46;;;;;;;;;;;5.70;99.90;;;;;;5019101;28;20354;-81
2021/12/16 18:15:14;;;;;;;;;;;5.70;99.90;;;;;;5001444;28;19968;-81
2021/12/16 18:17:45;;;;;;;;;;;5.60;99.90;;;;;;5019219;28;19956;-81
2021/12/16 18:20:20;;;;;;;;;;;5.50;99.90;;;;;;5001517;28;19910;-81
2021/12/16 18:22:46;;;;;;;;;;;5.40;99.90;;;;;;5009968;28;20020;-82
2021/12/16 18:25:14;;;;;;;;;;;5.30;99.90;;;;;;4998830;28;19957;-81
2021/12/16 18:27:42;;;;;;;;;;;5.40;99.90;;;;;;5003703;28;19964;-82
2021/12/16 18:30:16;;;;;;;;;;;5.30;99.90;;;;;;5017495;28;19949;-82
2021/12/16 18:32:45;;;;;;;;;;;5.30;99.90;;;;;;4999944;28;19925;-81